Airport View

Enter ICAO identifier to see the current METAR for that AWOS.

KFNL for example

KSDY 271435Z AUTO 20005KT 10SM CLR 14/13 A3012 RMK AO1

27 Aug 2014 15:05

Frequency: 119.275

Phone: 406-482-7323

Other Area AWOS: KISN - KS25 - KGDV - KPO1

TAF KSDY 271138Z 2712/2812 00000KT 1/4SM FG OVC001 FM271400 VRB04KT P6SM SKC FM271800 19008KT P6SM SKC AMD LTD TO CLD VIS AND WIND